• Join FlightAware (Why Join?)
  • Login
  • US Flag 
11:17AM EDT


 

Airport Tracker/Info


-or-


 

Live Flight TrackerFlight Track Log ✈ BJS542 ✈ 14-Aug-2013 ✈ KORF - KORD

Flight Track Log - Related Links

Times and Time Zones

All times are in EDT time to prevent confusion due to time zone crossing. See the BJS542 flight status page for this flight to view local times or setup timezone preferences in your user account.

Time Position Orientation Groundspeed Altitude Reporting Facility
EDT Latitude Longitude Course Direction KTS MPH feet Rate Location/Type
03:35PM 36.9036 -76.1919 37° Northeast 164 189 800  Level Washington Center
03:37PM 36.9581 -76.1403 37° Northeast 240 276 3,400 2,820 Climbing Washington Center
03:37PM 37.0122 -76.1381 North 263 303 6,300 3,360 Climbing Washington Center
03:38PM 37.0056 -76.2214 264° West 279 321 9,600 1,920 Climbing Washington Center
03:39PM 36.9717 -76.3172 246° West 306 352 10,100 420 Climbing Washington Center
03:40PM 36.9439 -76.4261 252° West 321 369 10,500 1,380 Climbing Washington Center
03:41PM 36.9617 -76.5433 281° West 321 369 13,000 2,640 Climbing Washington Center
03:42PM 36.9817 -76.6606 282° West 335 386 15,900 2,820 Climbing Washington Center
03:43PM 37.0014 -76.7778 282° West 340 391 18,700 2,820 Climbing Washington Center
03:44PM 37.0211 -76.8953 282° West 346 398 21,500 2,160 Climbing Washington Center
03:45PM 37.0406 -77.0153 282° West 351 404 23,000 1,620 Climbing Washington Center
03:46PM 37.0639 -77.1458 283° West 370 426 24,900 1,620 Climbing Washington Center
03:47PM 37.0811 -77.2606 281° West 370 426 26,300 1,200 Climbing Washington Center
03:48PM 37.1064 -77.3889 284° West 370 426 27,300 1,500 Climbing Washington Center
03:49PM 37.1294 -77.5247 282° West 381 438 29,300 1,860 Climbing Washington Center
03:50PM 37.1522 -77.6556 282° West 386 444 31,100 1,620 Climbing Washington Center
03:51PM 37.1517 -77.7989 270° West 386 444 32,600 1,320 Climbing Washington Center
03:52PM 37.1389 -77.9289 263° West 381 438 33,700 1,080 Climbing Washington Center
03:53PM 37.1528 -78.0675 277° West 386 444 34,800 960 Climbing Washington Center
03:54PM 37.2089 -78.1736 304° West 386 444 35,700 1,140 Climbing Washington Center
03:55PM 37.3106 -78.3022 315° West 428 493 37,100 1,380 Climbing Washington Center
03:56PM 37.3953 -78.4203 312° West 443 510 38,500 1,380 Climbing Washington Center
03:57PM 37.4803 -78.5308 314° West 443 510 39,900 1,080 Climbing Washington Center
03:58PM 37.5531 -78.6278 313° West 438 504 40,700 540 Climbing Washington Center
03:59PM 37.6314 -78.7358 312° West 428 493 41,000 120 Climbing Washington Center
04:00PM 37.7119 -78.8444 313° West 428 493 41,000 420 Level Washington Center
04:01PM 37.7986 -78.9611 313° West 423 487 41,900 840 Climbing Washington Center
04:02PM 37.8769 -79.0672 313° West 417 480 42,700 540 Climbing Washington Center
04:03PM 37.9789 -79.1483 328° Northwest 417 480 43,000 120 Climbing Washington Center
04:04PM 38.0878 -79.2008 339° North 429 494 43,000  Level Washington Center
04:05PM 38.1958 -79.2803 330° Northwest 447 514 43,000  Level Washington Center
04:06PM 38.2694 -79.3975 309° West 430 495 43,000  Level Washington Center
04:07PM 38.3381 -79.5308 303° West 415 478 43,000  Level Washington Center
04:08PM 38.4008 -79.6481 304° West 415 478 43,000  Level Washington Center
04:09PM 38.4636 -79.7656 304° West 410 472 43,000  Level Washington Center
04:10PM 38.5258 -79.8883 303° West 410 472 43,000  Level Washington Center
04:11PM 38.5867 -79.9981 305° West 410 472 43,000  Level Washington Center
04:13PM 38.6628 -80.1425 304° West 416 479 43,000  Level Indianapolis Center
04:14PM 38.7283 -80.2658 304° West 418 481 43,000  Level Indianapolis Center
04:15PM 38.7925 -80.3881 304° West 416 479 43,000  Level Indianapolis Center
04:16PM 38.8569 -80.5094 304° West 414 476 43,000  Level Indianapolis Center
04:17PM 38.9192 -80.6356 302° West 418 481 43,000  Level Indianapolis Center
04:18PM 38.9803 -80.7603 302° West 417 480 43,000  Level Indianapolis Center
04:19PM 39.0503 -80.9067 302° West 408 470 43,000  Level Indianapolis Center
04:20PM 39.1108 -81.0311 302° West 411 473 43,000  Level Indianapolis Center
04:21PM 39.1708 -81.1556 302° West 412 474 43,000  Level Indianapolis Center
04:22PM 39.2311 -81.2817 302° West 415 478 43,000  Level Indianapolis Center
04:23PM 39.2919 -81.4083 302° West 418 481 43,000  Level Indianapolis Center
04:24PM 39.3531 -81.5364 302° West 420 483 43,000  Level Indianapolis Center
04:25PM 39.4272 -81.6925 302° West 423 487 43,000  Level Indianapolis Center
04:26PM 39.4869 -81.8250 300° West 430 495 43,000  Level Indianapolis Center
04:27PM 39.5469 -81.9539 301° West 424 488 43,000  Level Indianapolis Center
04:28PM 39.6081 -82.0844 301° West 424 488 43,000  Level Indianapolis Center
04:29PM 39.6686 -82.2156 301° West 424 488 43,000  Level Indianapolis Center
04:30PM 39.7294 -82.3467 301° West 423 487 43,000  Level Indianapolis Center
04:31PM 39.8022 -82.5028 301° West 421 484 43,000  Level Indianapolis Center
04:32PM 39.8622 -82.6353 301° West 423 487 43,000  Level Indianapolis Center
04:33PM 39.9228 -82.7678 301° West 425 489 43,000  Level Indianapolis Center
04:34PM 39.9831 -82.9017 300° West 424 488 43,000  Level Indianapolis Center
04:35PM 40.0439 -83.0364 301° West 426 490 43,000  Level Indianapolis Center
04:36PM 40.1047 -83.1711 301° West 428 493 43,000  Level Indianapolis Center
04:37PM 40.1744 -83.3278 300° West 422 486 43,000  Level Indianapolis Center
04:38PM 40.2350 -83.4633 300° West 427 491 43,000  Level Indianapolis Center
04:39PM 40.2961 -83.6008 300° West 432 497 43,000 -240 Level Indianapolis Center
04:40PM 40.3553 -83.7367 300° West 427 491 42,600 -780 Descending Indianapolis Center
04:41PM 40.4203 -83.8819 300° West 429 494 41,500 -1,020 Descending Indianapolis Center
04:42PM 40.4778 -84.0153 300° West 423 487 40,500 -1,260 Descending Indianapolis Center
04:44PM 40.5347 -84.1450 300° West 415 478 38,900 -1,620 Descending Indianapolis Center
04:45PM 40.5908 -84.2758 299° West 413 475 37,200 -1,680 Descending Indianapolis Center
04:46PM 40.6478 -84.4100 299° West 420 483 35,400 -1,560 Descending Indianapolis Center
04:47PM 40.7167 -84.5686 300° West 417 480 34,000 -780 Descending Indianapolis Center
04:47PM 40.7603 -84.6681 300° West 417 480 34,000  Level Chicago Center
04:48PM 40.8167 -84.8000 299° West 415 478 34,000  Level Chicago Center
04:50PM 40.8739 -84.9308 300° West 413 475 34,000  Level Chicago Center
04:51PM 40.9306 -85.0642 299° West 414 476 34,000  Level Chicago Center
04:52PM 40.9881 -85.1964 300° West 415 478 34,000  Level Chicago Center
04:53PM 41.0569 -85.3569 300° West 416 479 34,000 -480 Level Chicago Center
04:54PM 41.1144 -85.4922 299° West 419 482 33,100 -540 Descending Chicago Center
04:55PM 41.1742 -85.6294 300° West 425 489 33,000 -660 Descending Chicago Center
04:56PM 41.2311 -85.7664 299° West 422 486 31,800 -1,620 Descending Chicago Center
04:57PM 41.2803 -85.9089 295° West 424 488 29,700 -2,220 Descending Chicago Center
04:58PM 41.3158 -86.0647 287° West 436 502 27,300 -2,160 Descending Chicago Center
04:59PM 41.3519 -86.2178 287° West 432 497 25,300 -2,040 Descending Chicago Center
05:00PM 41.3906 -86.3889 287° West 403 464 23,100 -1,980 Descending Chicago Center
05:01PM 41.4217 -86.5272 287° West 392 451 21,300 -1,800 Descending Chicago Center
05:02PM 41.4517 -86.6625 287° West 382 440 19,500 -1,740 Descending Chicago Center
05:03PM 41.4872 -86.8119 288° West 386 444 17,800 -1,740 Descending Chicago Center
05:04PM 41.5169 -86.9442 287° West 378 435 16,000 -1,740 Descending Chicago Center
05:05PM 41.5450 -87.0725 286° West 366 421 14,300 -1,680 Descending Chicago Center
05:06PM 41.5708 -87.1967 286° West 353 406 12,600 -1,740 Descending Chicago Center
05:07PM 41.6297 -87.3222 302° West 337 388 10,700 -1,320 Descending Chicago Center
05:08PM 41.6853 -87.4158 308° West 328 377 9,900 -360 Descending Chicago Center
05:09PM 41.7392 -87.5058 309° West 315 362 10,000 -120 Climbing Chicago Center
05:10PM 41.7922 -87.5914 310° West 304 350 9,700 -960 Descending Chicago Center
05:11PM 41.8392 -87.6700 309° West 279 321 8,100 -1,320 Descending Chicago Center
05:12PM 41.9231 -87.7050 343° North 281 323 7,000 -660 Descending Chicago Center
05:13PM 41.9919 -87.7083 358° North 252 290 6,800 -780 Descending Chicago Center
05:14PM 42.0464 -87.6661 30° Northeast 233 268 5,400 -1,260 Descending Chicago Center
05:15PM 42.0922 -87.7158 321° Northwest 226 260 4,300 -900 Descending Chicago Center
05:16PM 42.0933 -87.7714 272° West 198 228 3,600 -1,080 Descending Chicago Center
05:18PM 42.0500 -87.8333 227° Southwest 167 192 2,100 -1,140 Descending Chicago TRACON
05:19PM 42.0167 -87.8833 228° Southwest 170 196 1,100 -960 Descending Chicago TRACON
05:21PM 41.9817 -87.9067 312° West  Level Estimated